Acworth, Georgia
Current Conditions -  °F | °C
As of 5:47 PM on Wednesday 22 Oct 2014 (Local Time) from KRYY Reporting Station
Clear Clear  
Wind Chill: 17°   Ceiling: Unl
Heat Index: 17°   Visibility: 10mi
Dew Point:   Wind: 12mph
Humidity: 42%   Direction: 330°NNW
Pressure: 30.1"   Gusts: 17mph
Location:  34.06°N, 84.68°W
Report Text: KRYY 222147Z 33010G15KT 10SM SKC 17/04 A3010
Loading
Personal Weather Stations






























Interactive Weather Map New forecast layout! Learn more

10-Day Weather Forecast

Advertisements
Track Severe Weather on mobile